sensor_id;sensor_type;location;lat;lon;timestamp;pressure;altitude;pressure_sealevel;temperature;humidity
36692;BME280;22678;52.052;4.242;2023-05-12T00:00:46;101823.50;;;14.62;80.79
36692;BME280;22678;52.052;4.242;2023-05-12T00:03:12;101821.81;;;14.51;80.77
36692;BME280;22678;52.052;4.242;2023-05-12T00:05:38;101825.31;;;14.55;80.83
36692;BME280;22678;52.052;4.242;2023-05-12T00:08:03;101792.00;;;14.31;80.64
36692;BME280;22678;52.052;4.242;2023-05-12T00:10:29;101827.16;;;14.47;80.77
36692;BME280;22678;52.052;4.242;2023-05-12T00:12:54;101825.41;;;14.41;80.54
36692;BME280;22678;52.052;4.242;2023-05-12T00:15:20;101820.19;;;14.35;80.61
36692;BME280;22678;52.052;4.242;2023-05-12T00:17:46;101826.38;;;14.35;80.84
36692;BME280;22678;52.052;4.242;2023-05-12T00:20:11;101823.75;;;14.31;80.58
36692;BME280;22678;52.052;4.242;2023-05-12T00:22:38;101817.66;;;14.23;80.27
36692;BME280;22678;52.052;4.242;2023-05-12T00:25:04;101815.91;;;14.18;80.55
36692;BME280;22678;52.052;4.242;2023-05-12T00:27:29;101823.88;;;14.15;80.04
36692;BME280;22678;52.052;4.242;2023-05-12T00:29:56;101823.94;;;14.09;80.49
36692;BME280;22678;52.052;4.242;2023-05-12T00:32:22;101824.81;;;14.08;80.17
36692;BME280;22678;52.052;4.242;2023-05-12T00:34:48;101827.50;;;14.02;80.19
36692;BME280;22678;52.052;4.242;2023-05-12T00:37:14;101828.38;;;14.02;80.26
36692;BME280;22678;52.052;4.242;2023-05-12T00:39:39;101809.97;;;13.89;80.03
36692;BME280;22678;52.052;4.242;2023-05-12T00:42:04;101827.56;;;13.96;80.22
36692;BME280;22678;52.052;4.242;2023-05-12T00:44:30;101826.66;;;13.92;80.33
36692;BME280;22678;52.052;4.242;2023-05-12T00:46:55;101827.56;;;13.93;80.07
36692;BME280;22678;52.052;4.242;2023-05-12T00:49:21;101822.28;;;13.90;80.20
36692;BME280;22678;52.052;4.242;2023-05-12T00:51:47;101817.06;;;13.80;80.16
36692;BME280;22678;52.052;4.242;2023-05-12T00:54:12;101817.03;;;13.82;80.16
36692;BME280;22678;52.052;4.242;2023-05-12T00:56:38;101814.41;;;13.82;80.61
36692;BME280;22678;52.052;4.242;2023-05-12T00:59:04;101820.56;;;13.86;80.20
36692;BME280;22678;52.052;4.242;2023-05-12T01:01:31;101823.22;;;13.86;80.63
36692;BME280;22678;52.052;4.242;2023-05-12T01:03:56;101817.94;;;13.79;80.78
36692;BME280;22678;52.052;4.242;2023-05-12T01:06:28;101817.06;;;13.77;80.94
36692;BME280;22678;52.052;4.242;2023-05-12T01:08:57;101813.59;;;13.72;81.12
36692;BME280;22678;52.052;4.242;2023-05-12T01:11:23;101823.22;;;13.76;81.42
36692;BME280;22678;52.052;4.242;2023-05-12T01:13:48;101824.16;;;13.75;81.83
36692;BME280;22678;52.052;4.242;2023-05-12T01:16:14;101818.84;;;13.77;81.94
36692;BME280;22678;52.052;4.242;2023-05-12T01:18:42;101817.09;;;13.74;82.25
36692;BME280;22678;52.052;4.242;2023-05-12T01:21:09;101818.00;;;13.67;82.34
36692;BME280;22678;52.052;4.242;2023-05-12T01:23:41;101816.22;;;13.69;82.88
36692;BME280;22678;52.052;4.242;2023-05-12T01:26:08;101818.00;;;13.67;82.83
36692;BME280;22678;52.052;4.242;2023-05-12T01:28:35;101816.25;;;13.64;83.30
36692;BME280;22678;52.052;4.242;2023-05-12T01:31:02;101816.28;;;13.61;83.29
36692;BME280;22678;52.052;4.242;2023-05-12T01:33:28;101820.72;;;13.58;83.93
36692;BME280;22678;52.052;4.242;2023-05-12T01:35:53;101813.63;;;13.60;84.03
36692;BME280;22678;52.052;4.242;2023-05-12T01:38:18;101804.88;;;13.55;84.44
36692;BME280;22678;52.052;4.242;2023-05-12T01:40:43;101799.59;;;13.52;84.65
36692;BME280;22678;52.052;4.242;2023-05-12T01:43:09;101815.44;;;13.56;84.85
36692;BME280;22678;52.052;4.242;2023-05-12T01:45:34;101816.31;;;13.57;85.18
36692;BME280;22678;52.052;4.242;2023-05-12T01:48:00;101815.44;;;13.55;85.58
36692;BME280;22678;52.052;4.242;2023-05-12T01:50:26;101811.94;;;13.49;85.67
36692;BME280;22678;52.052;4.242;2023-05-12T01:52:51;101811.94;;;13.46;85.92
36692;BME280;22678;52.052;4.242;2023-05-12T01:55:16;101799.66;;;13.39;86.31
36692;BME280;22678;52.052;4.242;2023-05-12T01:57:41;101816.38;;;13.46;86.59
36692;BME280;22678;52.052;4.242;2023-05-12T02:00:07;101817.25;;;13.43;86.72
36692;BME280;22678;52.052;4.242;2023-05-12T02:02:33;101790.84;;;13.28;86.72
36692;BME280;22678;52.052;4.242;2023-05-12T02:04:58;101810.22;;;13.36;87.25
36692;BME280;22678;52.052;4.242;2023-05-12T02:07:24;101801.44;;;13.31;87.39
36692;BME280;22678;52.052;4.242;2023-05-12T02:09:49;101813.75;;;13.35;87.63
36692;BME280;22678;52.052;4.242;2023-05-12T02:12:15;101819.91;;;13.32;88.01
36692;BME280;22678;52.052;4.242;2023-05-12T02:14:40;101812.88;;;13.28;88.18
36692;BME280;22678;52.052;4.242;2023-05-12T02:17:05;101809.38;;;13.22;88.17
36692;BME280;22678;52.052;4.242;2023-05-12T02:19:31;101815.56;;;13.22;88.33
36692;BME280;22678;52.052;4.242;2023-05-12T02:21:56;101808.50;;;13.20;88.32
36692;BME280;22678;52.052;4.242;2023-05-12T02:24:21;101789.19;;;13.08;88.57
36692;BME280;22678;52.052;4.242;2023-05-12T02:26:47;101790.09;;;13.07;88.59
36692;BME280;22678;52.052;4.242;2023-05-12T02:29:12;101807.63;;;13.13;89.07
36692;BME280;22678;52.052;4.242;2023-05-12T02:31:37;101805.91;;;13.12;88.94
36692;BME280;22678;52.052;4.242;2023-05-12T02:34:03;101793.59;;;13.03;89.12
36692;BME280;22678;52.052;4.242;2023-05-12T02:36:28;101801.53;;;13.03;89.57
36692;BME280;22678;52.052;4.242;2023-05-12T02:38:53;101779.56;;;12.92;89.30
36692;BME280;22678;52.052;4.242;2023-05-12T02:41:19;101792.72;;;12.98;89.59
36692;BME280;22678;52.052;4.242;2023-05-12T02:43:44;101792.75;;;12.95;89.74
36692;BME280;22678;52.052;4.242;2023-05-12T02:46:09;101796.25;;;12.94;89.81
36692;BME280;22678;52.052;4.242;2023-05-12T02:48:34;101781.31;;;12.85;90.02
36692;BME280;22678;52.052;4.242;2023-05-12T02:51:00;101783.09;;;12.85;90.32
36692;BME280;22678;52.052;4.242;2023-05-12T02:53:25;101775.16;;;12.85;90.42
36692;BME280;22678;52.052;4.242;2023-05-12T02:55:51;101781.31;;;12.85;90.66
36692;BME280;22678;52.052;4.242;2023-05-12T02:58:17;101795.38;;;12.92;90.65
36692;BME280;22678;52.052;4.242;2023-05-12T03:00:42;101788.34;;;12.88;90.82
36692;BME280;22678;52.052;4.242;2023-05-12T03:03:07;101787.50;;;12.86;90.76
36692;BME280;22678;52.052;4.242;2023-05-12T03:05:33;101781.34;;;12.76;90.95
36692;BME280;22678;52.052;4.242;2023-05-12T03:07:58;101784.88;;;12.81;91.20
36692;BME280;22678;52.052;4.242;2023-05-12T03:10:23;101781.34;;;12.77;91.26
36692;BME280;22678;52.052;4.242;2023-05-12T03:12:49;101776.94;;;12.73;91.58
36692;BME280;22678;52.052;4.242;2023-05-12T03:15:14;101780.50;;;12.69;91.59
36692;BME280;22678;52.052;4.242;2023-05-12T03:17:40;101789.28;;;12.71;91.52
36692;BME280;22678;52.052;4.242;2023-05-12T03:20:05;101785.78;;;12.69;91.54
36692;BME280;22678;52.052;4.242;2023-05-12T03:22:31;101762.91;;;12.62;92.00
36692;BME280;22678;52.052;4.242;2023-05-12T03:24:56;101768.19;;;12.62;92.11
36692;BME280;22678;52.052;4.242;2023-05-12T03:27:22;101769.09;;;12.55;91.79
36692;BME280;22678;52.052;4.242;2023-05-12T03:29:47;101771.72;;;12.55;92.50
36692;BME280;22678;52.052;4.242;2023-05-12T03:32:12;101752.38;;;12.43;92.44
36692;BME280;22678;52.052;4.242;2023-05-12T03:34:38;101751.53;;;12.40;92.68
36692;BME280;22678;52.052;4.242;2023-05-12T03:37:03;101722.50;;;12.20;93.05
36692;BME280;22678;52.052;4.242;2023-05-12T03:39:28;101751.53;;;12.37;93.23
36692;BME280;22678;52.052;4.242;2023-05-12T03:41:54;101771.72;;;12.38;93.72
36692;BME280;22678;52.052;4.242;2023-05-12T03:44:19;101764.72;;;12.38;94.04
36692;BME280;22678;52.052;4.242;2023-05-12T03:46:45;101748.88;;;12.26;94.14
36692;BME280;22678;52.052;4.242;2023-05-12T03:49:10;101747.13;;;12.22;94.05
36692;BME280;22678;52.052;4.242;2023-05-12T03:51:36;101755.91;;;12.24;94.41
36692;BME280;22678;52.052;4.242;2023-05-12T03:54:01;101761.19;;;12.24;94.82
36692;BME280;22678;52.052;4.242;2023-05-12T03:56:26;101762.06;;;12.23;94.95
36692;BME280;22678;52.052;4.242;2023-05-12T03:58:53;101762.06;;;12.24;95.14
36692;BME280;22678;52.052;4.242;2023-05-12T04:01:18;101754.16;;;12.21;95.49
36692;BME280;22678;52.052;4.242;2023-05-12T04:03:43;101740.97;;;12.18;95.73
36692;BME280;22678;52.052;4.242;2023-05-12T04:06:08;101755.94;;;12.21;95.75
36692;BME280;22678;52.052;4.242;2023-05-12T04:08:34;101760.31;;;12.17;96.13
36692;BME280;22678;52.052;4.242;2023-05-12T04:11:00;101762.94;;;12.14;96.17
36692;BME280;22678;52.052;4.242;2023-05-12T04:13:27;101759.44;;;12.07;96.17
36692;BME280;22678;52.052;4.242;2023-05-12T04:15:57;101754.19;;;12.07;96.69
36692;BME280;22678;52.052;4.242;2023-05-12T04:18:25;101762.09;;;12.09;96.91
36692;BME280;22678;52.052;4.242;2023-05-12T04:20:51;101765.59;;;12.05;96.96
36692;BME280;22678;52.052;4.242;2023-05-12T04:23:17;101762.94;;;12.03;97.09
36692;BME280;22678;52.052;4.242;2023-05-12T04:25:42;101755.03;;;11.97;97.60
36692;BME280;22678;52.052;4.242;2023-05-12T04:28:08;101755.91;;;11.98;97.72
36692;BME280;22678;52.052;4.242;2023-05-12T04:30:34;101753.28;;;12.01;97.98
36692;BME280;22678;52.052;4.242;2023-05-12T04:33:00;101750.66;;;11.96;98.09
36692;BME280;22678;52.052;4.242;2023-05-12T04:35:26;101756.78;;;11.95;98.03
36692;BME280;22678;52.052;4.242;2023-05-12T04:37:51;101748.00;;;11.93;98.34
36692;BME280;22678;52.052;4.242;2023-05-12T04:40:16;101768.19;;;11.92;98.63
36692;BME280;22678;52.052;4.242;2023-05-12T04:42:42;101758.56;;;11.95;98.73
36692;BME280;22678;52.052;4.242;2023-05-12T04:45:07;101754.13;;;11.90;98.86
36692;BME280;22678;52.052;4.242;2023-05-12T04:47:33;101759.38;;;11.86;99.00
36692;BME280;22678;52.052;4.242;2023-05-12T04:49:58;101752.34;;;11.85;99.19
36692;BME280;22678;52.052;4.242;2023-05-12T04:52:23;101762.03;;;11.92;99.33
36692;BME280;22678;52.052;4.242;2023-05-12T04:54:49;101754.97;;;11.88;99.67
36692;BME280;22678;52.052;4.242;2023-05-12T04:57:15;101759.38;;;11.86;99.53
36692;BME280;22678;52.052;4.242;2023-05-12T04:59:40;101761.16;;;11.87;99.79
36692;BME280;22678;52.052;4.242;2023-05-12T05:02:07;101761.16;;;11.85;100.00
36692;BME280;22678;52.052;4.242;2023-05-12T05:04:32;101769.06;;;11.88;100.00
36692;BME280;22678;52.052;4.242;2023-05-12T05:06:58;101761.16;;;11.87;100.00
36692;BME280;22678;52.052;4.242;2023-05-12T05:09:23;101763.78;;;11.88;100.00
36692;BME280;22678;52.052;4.242;2023-05-12T05:11:48;101771.72;;;11.93;100.00
36692;BME280;22678;52.052;4.242;2023-05-12T05:14:14;101776.06;;;11.91;100.00
36692;BME280;22678;52.052;4.242;2023-05-12T05:16:39;101767.28;;;11.90;100.00
36692;BME280;22678;52.052;4.242;2023-05-12T05:19:05;101745.34;;;11.81;100.00
36692;BME280;22678;52.052;4.242;2023-05-12T05:21:30;101752.34;;;11.79;100.00
36692;BME280;22678;52.052;4.242;2023-05-12T05:23:56;101776.06;;;11.88;100.00
36692;BME280;22678;52.052;4.242;2023-05-12T05:26:21;101767.28;;;11.83;100.00
36692;BME280;22678;52.052;4.242;2023-05-12T05:28:47;101788.38;;;11.90;100.00
36692;BME280;22678;52.052;4.242;2023-05-12T05:31:15;101773.44;;;11.91;100.00
36692;BME280;22678;52.052;4.242;2023-05-12T05:33:42;101778.78;;;11.94;100.00
36692;BME280;22678;52.052;4.242;2023-05-12T05:36:08;101759.38;;;11.86;100.00
36692;BME280;22678;52.052;4.242;2023-05-12T05:38:33;101772.56;;;11.89;100.00
36692;BME280;22678;52.052;4.242;2023-05-12T05:40:58;101776.09;;;11.92;100.00
36692;BME280;22678;52.052;4.242;2023-05-12T05:43:24;101771.72;;;11.93;100.00
36692;BME280;22678;52.052;4.242;2023-05-12T05:45:50;101759.38;;;11.89;100.00
36692;BME280;22678;52.052;4.242;2023-05-12T05:48:16;101757.63;;;11.88;100.00
36692;BME280;22678;52.052;4.242;2023-05-12T05:50:41;101770.88;;;11.99;100.00
36692;BME280;22678;52.052;4.242;2023-05-12T05:53:06;101774.38;;;11.99;100.00
36692;BME280;22678;52.052;4.242;2023-05-12T05:55:32;101772.59;;;11.98;100.00
36692;BME280;22678;52.052;4.242;2023-05-12T05:57:57;101784.03;;;11.94;100.00
36692;BME280;22678;52.052;4.242;2023-05-12T06:00:22;101781.41;;;11.99;100.00
36692;BME280;22678;52.052;4.242;2023-05-12T06:02:48;101770.84;;;11.92;100.00
36692;BME280;22678;52.052;4.242;2023-05-12T06:05:13;101771.72;;;11.95;100.00
36692;BME280;22678;52.052;4.242;2023-05-12T06:07:38;101759.38;;;11.89;100.00
36692;BME280;22678;52.052;4.242;2023-05-12T06:10:05;101787.56;;;11.99;100.00
36692;BME280;22678;52.052;4.242;2023-05-12T06:12:30;101784.03;;;12.00;100.00
36692;BME280;22678;52.052;4.242;2023-05-12T06:14:55;101781.41;;;11.99;100.00
36692;BME280;22678;52.052;4.242;2023-05-12T06:17:21;101785.81;;;12.06;100.00
36692;BME280;22678;52.052;4.242;2023-05-12T06:19:46;101773.50;;;11.97;100.00
36692;BME280;22678;52.052;4.242;2023-05-12T06:22:14;101795.44;;;12.10;100.00
36692;BME280;22678;52.052;4.242;2023-05-12T06:24:40;101809.53;;;12.11;100.00
36692;BME280;22678;52.052;4.242;2023-05-12T06:27:06;101780.53;;;12.04;100.00
36692;BME280;22678;52.052;4.242;2023-05-12T06:29:32;101797.22;;;12.13;100.00
36692;BME280;22678;52.052;4.242;2023-05-12T06:31:57;101796.34;;;12.14;100.00
36692;BME280;22678;52.052;4.242;2023-05-12T06:34:23;101791.94;;;12.16;100.00
36692;BME280;22678;52.052;4.242;2023-05-12T06:36:48;101805.13;;;12.22;100.00
36692;BME280;22678;52.052;4.242;2023-05-12T06:39:13;101806.03;;;12.22;100.00
36692;BME280;22678;52.052;4.242;2023-05-12T06:41:39;101800.75;;;12.24;100.00
36692;BME280;22678;52.052;4.242;2023-05-12T06:44:04;101785.81;;;12.23;100.00
36692;BME280;22678;52.052;4.242;2023-05-12T06:46:31;101795.47;;;12.29;100.00
36692;BME280;22678;52.052;4.242;2023-05-12T06:48:56;101805.16;;;12.31;100.00
36692;BME280;22678;52.052;4.242;2023-05-12T06:51:22;101801.66;;;12.35;100.00
36692;BME280;22678;52.052;4.242;2023-05-12T06:53:47;101801.66;;;12.35;100.00
36692;BME280;22678;52.052;4.242;2023-05-12T06:56:13;101803.38;;;12.36;100.00
36692;BME280;22678;52.052;4.242;2023-05-12T06:58:44;101810.41;;;12.45;100.00
36692;BME280;22678;52.052;4.242;2023-05-12T07:01:10;101812.19;;;12.44;100.00
36692;BME280;22678;52.052;4.242;2023-05-12T07:03:35;101812.19;;;12.46;100.00
36692;BME280;22678;52.052;4.242;2023-05-12T07:06:01;101806.91;;;12.48;100.00
36692;BME280;22678;52.052;4.242;2023-05-12T07:08:26;101808.66;;;12.52;100.00
36692;BME280;22678;52.052;4.242;2023-05-12T07:10:51;101818.34;;;12.57;100.00
36692;BME280;22678;52.052;4.242;2023-05-12T07:13:17;101819.19;;;12.61;100.00
36692;BME280;22678;52.052;4.242;2023-05-12T07:15:43;101803.34;;;12.67;100.00
36692;BME280;22678;52.052;4.242;2023-05-12T07:18:08;101813.00;;;12.82;100.00
36692;BME280;22678;52.052;4.242;2023-05-12T07:20:33;101805.09;;;12.87;100.00
36692;BME280;22678;52.052;4.242;2023-05-12T07:22:59;101800.69;;;12.86;100.00
36692;BME280;22678;52.052;4.242;2023-05-12T07:25:24;101812.09;;;12.94;100.00
36692;BME280;22678;52.052;4.242;2023-05-12T07:27:49;101804.19;;;12.92;100.00
36692;BME280;22678;52.052;4.242;2023-05-12T07:30:15;101827.97;;;12.97;100.00
36692;BME280;22678;52.052;4.242;2023-05-12T07:32:40;101822.66;;;13.03;100.00
36692;BME280;22678;52.052;4.242;2023-05-12T07:35:07;101812.09;;;13.03;100.00
36692;BME280;22678;52.052;4.242;2023-05-12T07:37:33;101819.13;;;13.10;100.00
36692;BME280;22678;52.052;4.242;2023-05-12T07:39:59;101831.41;;;13.14;100.00
36692;BME280;22678;52.052;4.242;2023-05-12T07:42:24;101831.41;;;13.16;100.00
36692;BME280;22678;52.052;4.242;2023-05-12T07:44:50;101823.47;;;13.16;100.00
36692;BME280;22678;52.052;4.242;2023-05-12T07:47:15;101834.91;;;13.23;100.00
36692;BME280;22678;52.052;4.242;2023-05-12T07:49:40;101831.38;;;13.30;100.00
36692;BME280;22678;52.052;4.242;2023-05-12T07:52:06;101831.34;;;13.33;100.00
36692;BME280;22678;52.052;4.242;2023-05-12T07:54:31;101800.56;;;13.21;100.00
36692;BME280;22678;52.052;4.242;2023-05-12T07:56:56;101833.09;;;13.46;100.00
36692;BME280;22678;52.052;4.242;2023-05-12T07:59:22;101831.28;;;13.56;100.00
36692;BME280;22678;52.052;4.242;2023-05-12T08:01:47;101833.00;;;13.66;100.00
36692;BME280;22678;52.052;4.242;2023-05-12T08:04:13;101841.75;;;13.73;100.00
36692;BME280;22678;52.052;4.242;2023-05-12T08:06:38;101838.19;;;13.80;100.00
36692;BME280;22678;52.052;4.242;2023-05-12T08:09:03;101834.66;;;13.84;100.00
36692;BME280;22678;52.052;4.242;2023-05-12T08:11:29;101822.28;;;13.90;100.00
36692;BME280;22678;52.052;4.242;2023-05-12T08:13:54;101831.03;;;14.01;100.00
36692;BME280;22678;52.052;4.242;2023-05-12T08:16:19;101842.34;;;14.22;100.00
36692;BME280;22678;52.052;4.242;2023-05-12T08:18:45;101842.28;;;14.34;100.00
36692;BME280;22678;52.052;4.242;2023-05-12T08:21:10;101843.06;;;14.41;100.00
36692;BME280;22678;52.052;4.242;2023-05-12T08:23:36;101833.34;;;14.46;100.00
36692;BME280;22678;52.052;4.242;2023-05-12T08:26:04;101842.91;;;14.61;100.00
36692;BME280;22678;52.052;4.242;2023-05-12T08:28:29;101834.06;;;14.65;100.00
36692;BME280;22678;52.052;4.242;2023-05-12T08:30:55;101837.50;;;14.76;100.00
36692;BME280;22678;52.052;4.242;2023-05-12T08:33:21;101847.03;;;14.94;100.00
36692;BME280;22678;52.052;4.242;2023-05-12T08:35:46;101839.88;;;15.02;100.00
36692;BME280;22678;52.052;4.242;2023-05-12T08:38:12;101830.13;;;15.09;100.00
36692;BME280;22678;52.052;4.242;2023-05-12T08:40:46;101844.03;;;15.25;100.00
36692;BME280;22678;52.052;4.242;2023-05-12T08:45:47;101854.56;;;15.33;98.96
36692;BME280;22678;52.052;4.242;2023-05-12T08:48:14;101842.25;;;15.29;98.44
36692;BME280;22678;52.052;4.242;2023-05-12T08:50:41;101880.00;;;15.48;97.65
36692;BME280;22678;52.052;4.242;2023-05-12T08:53:09;101874.69;;;15.49;96.59
36692;BME280;22678;52.052;4.242;2023-05-12T08:55:37;101859.72;;;15.45;95.95
36692;BME280;22678;52.052;4.242;2023-05-12T08:58:03;101870.09;;;15.64;95.83
36692;BME280;22678;52.052;4.242;2023-05-12T09:00:30;101861.13;;;15.74;95.40
36692;BME280;22678;52.052;4.242;2023-05-12T09:02:58;101871.59;;;15.86;94.43
36692;BME280;22678;52.052;4.242;2023-05-12T09:05:26;101857.34;;;15.93;93.48
36692;BME280;22678;52.052;4.242;2023-05-12T09:07:52;101864.28;;;16.04;93.38
36692;BME280;22678;52.052;4.242;2023-05-12T09:10:21;101869.44;;;16.13;92.26
36692;BME280;22678;52.052;4.242;2023-05-12T09:12:47;101850.75;;;16.19;91.91
36692;BME280;22678;52.052;4.242;2023-05-12T09:15:26;101875.09;;;16.48;90.78
36692;BME280;22678;52.052;4.242;2023-05-12T09:17:55;101868.66;;;16.62;87.71
36692;BME280;22678;52.052;4.242;2023-05-12T09:20:20;101869.38;;;16.71;87.18
36692;BME280;22678;52.052;4.242;2023-05-12T09:22:46;101866.44;;;16.89;87.08
36692;BME280;22678;52.052;4.242;2023-05-12T09:25:18;101865.22;;;17.07;85.52
36692;BME280;22678;52.052;4.242;2023-05-12T09:27:48;101862.31;;;17.21;83.31
36692;BME280;22678;52.052;4.242;2023-05-12T09:30:30;101855.09;;;17.26;81.29
36692;BME280;22678;52.052;4.242;2023-05-12T09:33:12;101867.25;;;17.40;80.47
36692;BME280;22678;52.052;4.242;2023-05-12T09:38:11;101879.00;;;17.72;79.94
36692;BME280;22678;52.052;4.242;2023-05-12T09:40:38;101865.97;;;17.58;77.17
36692;BME280;22678;52.052;4.242;2023-05-12T09:43:07;101833.84;;;17.26;77.41
36692;BME280;22678;52.052;4.242;2023-05-12T09:45:36;101869.91;;;17.40;77.59
36692;BME280;22678;52.052;4.242;2023-05-12T09:48:10;101883.06;;;17.46;77.91
36692;BME280;22678;52.052;4.242;2023-05-12T09:50:49;101881.28;;;17.48;77.94
36692;BME280;22678;52.052;4.242;2023-05-12T09:53:16;101884.56;;;17.59;77.37
36692;BME280;22678;52.052;4.242;2023-05-12T09:55:44;101887.00;;;17.70;77.61
36692;BME280;22678;52.052;4.242;2023-05-12T09:58:10;101884.16;;;17.79;76.39
36692;BME280;22678;52.052;4.242;2023-05-12T10:00:36;101870.66;;;17.87;75.99
36692;BME280;22678;52.052;4.242;2023-05-12T10:03:09;101884.50;;;18.04;75.26
36692;BME280;22678;52.052;4.242;2023-05-12T10:05:38;101875.56;;;18.07;75.81
36692;BME280;22678;52.052;4.242;2023-05-12T10:08:08;101882.50;;;18.14;74.60
36692;BME280;22678;52.052;4.242;2023-05-12T10:10:36;101885.28;;;18.10;74.28
36692;BME280;22678;52.052;4.242;2023-05-12T10:13:01;101862.38;;;18.02;73.53
36692;BME280;22678;52.052;4.242;2023-05-12T10:15:28;101888.56;;;18.21;74.19
36692;BME280;22678;52.052;4.242;2023-05-12T10:17:54;101896.19;;;18.36;73.23
36692;BME280;22678;52.052;4.242;2023-05-12T10:20:21;101883.31;;;18.55;73.34
36692;BME280;22678;52.052;4.242;2023-05-12T10:22:47;101892.53;;;18.77;72.66
36692;BME280;22678;52.052;4.242;2023-05-12T10:25:13;101886.59;;;19.01;72.15
36692;BME280;22678;52.052;4.242;2023-05-12T10:27:39;101880.03;;;19.13;71.76
36692;BME280;22678;52.052;4.242;2023-05-12T10:30:06;101893.97;;;19.24;70.80
36692;BME280;22678;52.052;4.242;2023-05-12T10:32:32;101897.47;;;19.26;68.89
36692;BME280;22678;52.052;4.242;2023-05-12T10:35:08;101894.47;;;19.37;68.82
36692;BME280;22678;52.052;4.242;2023-05-12T10:37:35;101891.09;;;19.62;69.31
36692;BME280;22678;52.052;4.242;2023-05-12T10:40:01;101889.41;;;19.91;68.95
36692;BME280;22678;52.052;4.242;2023-05-12T10:42:36;101898.34;;;20.18;66.89
36692;BME280;22678;52.052;4.242;2023-05-12T10:45:14;101892.13;;;20.18;66.35
36692;BME280;22678;52.052;4.242;2023-05-12T10:47:41;101879.78;;;20.13;66.16
36692;BME280;22678;52.052;4.242;2023-05-12T10:50:06;101898.38;;;20.17;65.34
36692;BME280;22678;52.052;4.242;2023-05-12T10:52:32;101888.72;;;20.12;66.25
36692;BME280;22678;52.052;4.242;2023-05-12T10:55:02;101879.59;;;20.20;66.19
36692;BME280;22678;52.052;4.242;2023-05-12T10:57:28;101888.03;;;20.34;65.53
36692;BME280;22678;52.052;4.242;2023-05-12T10:59:59;101885.94;;;20.44;65.61
36692;BME280;22678;52.052;4.242;2023-05-12T11:02:26;101890.50;;;20.40;64.40
36692;BME280;22678;52.052;4.242;2023-05-12T11:04:58;101898.91;;;20.28;64.43
36692;BME280;22678;52.052;4.242;2023-05-12T11:07:28;101875.41;;;20.11;64.48
36692;BME280;22678;52.052;4.242;2023-05-12T11:09:56;101888.66;;;20.16;64.71
36692;BME280;22678;52.052;4.242;2023-05-12T11:12:22;101892.19;;;20.16;64.87
36692;BME280;22678;52.052;4.242;2023-05-12T11:14:47;101886.03;;;20.14;65.19
36692;BME280;22678;52.052;4.242;2023-05-12T11:17:13;101888.72;;;20.12;64.77
36692;BME280;22678;52.052;4.242;2023-05-12T11:19:44;101904.06;;;20.06;64.94
36692;BME280;22678;52.052;4.242;2023-05-12T11:22:10;101894.03;;;19.84;65.10
36692;BME280;22678;52.052;4.242;2023-05-12T11:24:40;101889.75;;;19.78;65.68
36692;BME280;22678;52.052;4.242;2023-05-12T11:27:11;101889.81;;;19.75;65.52
36692;BME280;22678;52.052;4.242;2023-05-12T11:29:36;101882.75;;;19.74;65.88
36692;BME280;22678;52.052;4.242;2023-05-12T11:32:04;101895.84;;;19.84;66.00
36692;BME280;22678;52.052;4.242;2023-05-12T11:34:29;101896.41;;;19.95;65.97
36692;BME280;22678;52.052;4.242;2023-05-12T11:36:55;101887.19;;;20.05;65.53
36692;BME280;22678;52.052;4.242;2023-05-12T11:39:23;101895.81;;;20.13;65.25
36692;BME280;22678;52.052;4.242;2023-05-12T11:41:49;101894.69;;;20.21;65.32
36692;BME280;22678;52.052;4.242;2023-05-12T11:44:19;101896.00;;;20.36;64.60
36692;BME280;22678;52.052;4.242;2023-05-12T11:49:50;101908.91;;;20.50;64.00
36692;BME280;22678;52.052;4.242;2023-05-12T11:52:18;101903.91;;;20.65;62.26
36692;BME280;22678;52.052;4.242;2023-05-12T11:54:58;101898.84;;;20.58;62.08
36692;BME280;22678;52.052;4.242;2023-05-12T11:57:26;101892.69;;;20.56;61.90
36692;BME280;22678;52.052;4.242;2023-05-12T11:59:57;101912.84;;;20.66;61.90
36692;BME280;22678;52.052;4.242;2023-05-12T12:02:22;101915.53;;;20.66;62.39
36692;BME280;22678;52.052;4.242;2023-05-12T12:04:48;101904.13;;;20.59;62.15
36692;BME280;22678;52.052;4.242;2023-05-12T12:07:13;101904.13;;;20.59;62.65
36692;BME280;22678;52.052;4.242;2023-05-12T12:09:40;101892.78;;;20.53;62.44
36692;BME280;22678;52.052;4.242;2023-05-12T12:12:06;101916.19;;;20.73;61.74
36692;BME280;22678;52.052;4.242;2023-05-12T12:14:33;101911.41;;;20.82;61.77
36692;BME280;22678;52.052;4.242;2023-05-12T12:16:59;101914.81;;;20.88;60.39
36692;BME280;22678;52.052;4.242;2023-05-12T12:19:25;101920.22;;;20.85;59.57
36692;BME280;22678;52.052;4.242;2023-05-12T12:21:51;101922.63;;;20.94;59.84
36692;BME280;22678;52.052;4.242;2023-05-12T12:24:17;101909.94;;;20.99;59.28
36692;BME280;22678;52.052;4.242;2023-05-12T12:26:42;101916.81;;;21.06;59.62
36692;BME280;22678;52.052;4.242;2023-05-12T12:29:07;101914.72;;;21.16;58.65
36692;BME280;22678;52.052;4.242;2023-05-12T12:31:33;101928.03;;;21.17;57.78
36692;BME280;22678;52.052;4.242;2023-05-12T12:34:00;101940.25;;;21.25;57.87
36692;BME280;22678;52.052;4.242;2023-05-12T12:36:26;101923.19;;;21.27;57.14
36692;BME280;22678;52.052;4.242;2023-05-12T12:38:51;101914.09;;;21.33;57.99
36692;BME280;22678;52.052;4.242;2023-05-12T12:41:17;101917.94;;;21.49;57.67
36692;BME280;22678;52.052;4.242;2023-05-12T12:43:42;101903.72;;;21.73;57.58
36692;BME280;22678;52.052;4.242;2023-05-12T12:46:08;101908.44;;;21.90;56.69
36692;BME280;22678;52.052;4.242;2023-05-12T12:48:33;101927.28;;;22.10;56.71
36692;BME280;22678;52.052;4.242;2023-05-12T12:50:59;101930.75;;;22.36;56.97